Aeroporto :
LOGIN :

Iscrizione | Disclaimer

   EN    FR    IT 

 










Sommario :    VFR   VFR Marginale   IFR   IFR Intensivo   IFR Molto Intensivo
Visibilità : 
Base nubi : 
>= 8 km
>= 3000ft
5 / 8 km
1000 / 3000 ft
1500m / 5 km
500 / 1000 ft
800 / 1500m
200 / 500 ft
< 800m
< 200 ft
Simboli :   Temporali  Nebbia  Neve Forte  Precipitazioni Forti  Vento > 20 kt
SIGMETs :   Varie  Temporali  Ghiacco  Turbolenza  Onda orograficha  Ceneri Vulcaniche







- Altitudine del aeroporto : 24 ft
- Codice IATA : FAO


LPFR - Faro

ULTIMO METAR :
  • 181900Z 08005KT 020V140 CAVOK 26/14 Q1016

METARs OBSOLETI :
  • 181830Z 10006KT 080V140 CAVOK 26/15 Q1016
  • 181800Z 10007KT CAVOK 27/15 Q1016
  • 181730Z 10005KT 060V140 CAVOK 27/15 Q1016
  • 181700Z 14007KT 090V190 CAVOK 25/16 Q1016
  • 181630Z 13006KT 090V170 CAVOK 25/17 Q1016

TAF TAF LPFR
Valido dal 18 a 18 ore il 19 a 18 ore UTC


181700Z 1818/1918 VRB03KT CAVOK
BECMG 1820/1822 08008KT
BECMG 1902/1904 9999 SCT012
PROB40
TEMPO 1904/1908 2000 BR BKN003
BECMG 1909/1911 13012KT FEW018
BECMG 1914/1916 23008KT
Nessun NOTAM noto per questo aeroporto.



MetMap, La meteo Aeronautica in un colpo d'occhio ! - Copyright ORBIFLY Dicembre 2007 - Disclaimer

ORBIFLY MET'MAP TEAM :

Programmazione e sviluppo : Alexandra Zaïnal
Concezione e sviluppo : Baudouin d'Aumeries
Co-Programmazione e sviluppo : Marc-Olivier Méhu
Supporto tecnico e logistico : Manuel Goepfert
Aiuto per la traduzione : Arnaldo La Scala

Contatto : metmap@orbifly.com




FONTI E CREDITI :

   NOAA